sensor_id;sensor_type;location;lat;lon;timestamp;temperature;humidity
18581;DHT22;9420;50.876;7.012;2024-01-25T00:01:15;9.27;82.60
18581;DHT22;9420;50.876;7.012;2024-01-25T00:03:41;9.23;82.64
18581;DHT22;9420;50.876;7.012;2024-01-25T00:06:08;9.19;82.81
18581;DHT22;9420;50.876;7.012;2024-01-25T00:08:36;9.18;83.03
18581;DHT22;9420;50.876;7.012;2024-01-25T00:11:03;9.19;82.99
18581;DHT22;9420;50.876;7.012;2024-01-25T00:13:30;9.09;83.11
18581;DHT22;9420;50.876;7.012;2024-01-25T00:15:56;9.13;83.06
18581;DHT22;9420;50.876;7.012;2024-01-25T00:18:23;9.10;83.11
18581;DHT22;9420;50.876;7.012;2024-01-25T00:20:49;9.19;82.98
18581;DHT22;9420;50.876;7.012;2024-01-25T00:23:17;9.13;83.16
18581;DHT22;9420;50.876;7.012;2024-01-25T00:25:45;9.20;83.01
18581;DHT22;9420;50.876;7.012;2024-01-25T00:28:11;9.18;83.00
18581;DHT22;9420;50.876;7.012;2024-01-25T00:30:39;9.15;83.08
18581;DHT22;9420;50.876;7.012;2024-01-25T00:33:05;9.12;83.11
18581;DHT22;9420;50.876;7.012;2024-01-25T00:35:33;9.24;82.79
18581;DHT22;9420;50.876;7.012;2024-01-25T00:38:00;9.16;83.00
18581;DHT22;9420;50.876;7.012;2024-01-25T00:40:27;9.16;82.97
18581;DHT22;9420;50.876;7.012;2024-01-25T00:42:56;9.13;83.02
18581;DHT22;9420;50.876;7.012;2024-01-25T00:45:23;9.18;82.96
18581;DHT22;9420;50.876;7.012;2024-01-25T00:47:50;9.13;83.05
18581;DHT22;9420;50.876;7.012;2024-01-25T00:50:18;9.16;82.92
18581;DHT22;9420;50.876;7.012;2024-01-25T00:52:46;9.09;83.17
18581;DHT22;9420;50.876;7.012;2024-01-25T00:55:14;9.10;83.12
18581;DHT22;9420;50.876;7.012;2024-01-25T00:57:42;9.09;83.14
18581;DHT22;9420;50.876;7.012;2024-01-25T01:00:11;9.06;83.30
18581;DHT22;9420;50.876;7.012;2024-01-25T01:02:40;9.09;83.18
18581;DHT22;9420;50.876;7.012;2024-01-25T01:05:09;9.10;83.11
18581;DHT22;9420;50.876;7.012;2024-01-25T01:07:37;8.95;83.35
18581;DHT22;9420;50.876;7.012;2024-01-25T01:10:05;9.02;83.23
18581;DHT22;9420;50.876;7.012;2024-01-25T01:12:32;8.86;83.53
18581;DHT22;9420;50.876;7.012;2024-01-25T01:14:59;8.81;83.70
18581;DHT22;9420;50.876;7.012;2024-01-25T01:17:27;8.92;83.43
18581;DHT22;9420;50.876;7.012;2024-01-25T01:19:53;8.79;83.66
18581;DHT22;9420;50.876;7.012;2024-01-25T01:22:20;8.71;83.79
18581;DHT22;9420;50.876;7.012;2024-01-25T01:24:47;8.69;83.78
18581;DHT22;9420;50.876;7.012;2024-01-25T01:27:13;8.71;83.75
18581;DHT22;9420;50.876;7.012;2024-01-25T01:29:40;8.78;83.69
18581;DHT22;9420;50.876;7.012;2024-01-25T01:32:07;8.83;83.34
18581;DHT22;9420;50.876;7.012;2024-01-25T01:34:35;8.62;83.81
18581;DHT22;9420;50.876;7.012;2024-01-25T01:37:02;8.62;83.96
18581;DHT22;9420;50.876;7.012;2024-01-25T01:39:29;8.58;83.90
18581;DHT22;9420;50.876;7.012;2024-01-25T01:41:55;8.51;83.94
18581;DHT22;9420;50.876;7.012;2024-01-25T01:44:22;8.42;84.19
18581;DHT22;9420;50.876;7.012;2024-01-25T01:46:49;8.40;84.33
18581;DHT22;9420;50.876;7.012;2024-01-25T01:49:15;8.47;84.12
18581;DHT22;9420;50.876;7.012;2024-01-25T01:51:43;8.50;83.97
18581;DHT22;9420;50.876;7.012;2024-01-25T01:54:11;8.37;84.16
18581;DHT22;9420;50.876;7.012;2024-01-25T01:56:38;8.27;84.41
18581;DHT22;9420;50.876;7.012;2024-01-25T01:59:09;8.16;84.53
18581;DHT22;9420;50.876;7.012;2024-01-25T02:01:37;8.26;84.37
18581;DHT22;9420;50.876;7.012;2024-01-25T02:04:03;8.23;84.48
18581;DHT22;9420;50.876;7.012;2024-01-25T02:06:29;8.17;84.59
18581;DHT22;9420;50.876;7.012;2024-01-25T02:08:58;8.09;84.71
18581;DHT22;9420;50.876;7.012;2024-01-25T02:11:24;8.10;84.69
18581;DHT22;9420;50.876;7.012;2024-01-25T02:13:51;8.06;84.84
18581;DHT22;9420;50.876;7.012;2024-01-25T02:16:18;8.00;84.89
18581;DHT22;9420;50.876;7.012;2024-01-25T02:18:45;8.02;84.85
18581;DHT22;9420;50.876;7.012;2024-01-25T02:21:12;7.89;85.22
18581;DHT22;9420;50.876;7.012;2024-01-25T02:23:40;7.92;85.21
18581;DHT22;9420;50.876;7.012;2024-01-25T02:26:06;7.94;84.88
18581;DHT22;9420;50.876;7.012;2024-01-25T02:28:33;7.85;85.06
18581;DHT22;9420;50.876;7.012;2024-01-25T02:31:01;7.87;85.28
18581;DHT22;9420;50.876;7.012;2024-01-25T02:33:28;7.85;85.20
18581;DHT22;9420;50.876;7.012;2024-01-25T02:35:55;7.78;85.37
18581;DHT22;9420;50.876;7.012;2024-01-25T02:38:22;7.76;85.46
18581;DHT22;9420;50.876;7.012;2024-01-25T02:40:50;7.76;85.56
18581;DHT22;9420;50.876;7.012;2024-01-25T02:43:18;7.71;85.57
18581;DHT22;9420;50.876;7.012;2024-01-25T02:45:48;7.52;85.66
18581;DHT22;9420;50.876;7.012;2024-01-25T02:48:15;7.66;85.60
18581;DHT22;9420;50.876;7.012;2024-01-25T02:50:41;7.64;85.68
18581;DHT22;9420;50.876;7.012;2024-01-25T02:53:08;7.66;85.54
18581;DHT22;9420;50.876;7.012;2024-01-25T02:55:34;7.52;85.94
18581;DHT22;9420;50.876;7.012;2024-01-25T02:58:03;7.38;86.17
18581;DHT22;9420;50.876;7.012;2024-01-25T03:00:29;7.48;86.08
18581;DHT22;9420;50.876;7.012;2024-01-25T03:02:56;7.47;85.92
18581;DHT22;9420;50.876;7.012;2024-01-25T03:05:22;7.48;85.81
18581;DHT22;9420;50.876;7.012;2024-01-25T03:07:49;7.45;86.10
18581;DHT22;9420;50.876;7.012;2024-01-25T03:10:16;7.44;86.05
18581;DHT22;9420;50.876;7.012;2024-01-25T03:12:42;7.41;86.07
18581;DHT22;9420;50.876;7.012;2024-01-25T03:15:11;7.47;85.93
18581;DHT22;9420;50.876;7.012;2024-01-25T03:17:37;7.44;85.98
18581;DHT22;9420;50.876;7.012;2024-01-25T03:20:05;7.38;86.04
18581;DHT22;9420;50.876;7.012;2024-01-25T03:22:32;7.41;86.06
18581;DHT22;9420;50.876;7.012;2024-01-25T03:25:00;7.45;85.92
18581;DHT22;9420;50.876;7.012;2024-01-25T03:27:26;7.47;86.00
18581;DHT22;9420;50.876;7.012;2024-01-25T03:29:53;7.35;86.22
18581;DHT22;9420;50.876;7.012;2024-01-25T03:32:21;7.35;86.31
18581;DHT22;9420;50.876;7.012;2024-01-25T03:34:48;7.32;86.25
18581;DHT22;9420;50.876;7.012;2024-01-25T03:37:15;7.31;86.27
18581;DHT22;9420;50.876;7.012;2024-01-25T03:39:42;7.25;86.70
18581;DHT22;9420;50.876;7.012;2024-01-25T03:42:08;7.28;86.53
18581;DHT22;9420;50.876;7.012;2024-01-25T03:44:35;7.23;86.47
18581;DHT22;9420;50.876;7.012;2024-01-25T03:47:01;7.25;86.49
18581;DHT22;9420;50.876;7.012;2024-01-25T03:49:29;7.20;86.39
18581;DHT22;9420;50.876;7.012;2024-01-25T03:51:56;7.24;86.37
18581;DHT22;9420;50.876;7.012;2024-01-25T03:54:23;7.14;86.44
18581;DHT22;9420;50.876;7.012;2024-01-25T03:56:49;7.08;86.70
18581;DHT22;9420;50.876;7.012;2024-01-25T03:59:16;7.24;86.61
18581;DHT22;9420;50.876;7.012;2024-01-25T04:01:43;7.20;86.35
18581;DHT22;9420;50.876;7.012;2024-01-25T04:04:10;7.21;86.36
18581;DHT22;9420;50.876;7.012;2024-01-25T04:06:41;7.06;86.46
18581;DHT22;9420;50.876;7.012;2024-01-25T04:09:08;7.03;86.74
18581;DHT22;9420;50.876;7.012;2024-01-25T04:11:35;7.11;86.72
18581;DHT22;9420;50.876;7.012;2024-01-25T04:14:02;6.99;86.67
18581;DHT22;9420;50.876;7.012;2024-01-25T04:16:28;7.01;86.84
18581;DHT22;9420;50.876;7.012;2024-01-25T04:18:55;6.99;86.90
18581;DHT22;9420;50.876;7.012;2024-01-25T04:21:22;6.94;86.85
18581;DHT22;9420;50.876;7.012;2024-01-25T04:23:50;6.83;87.06
18581;DHT22;9420;50.876;7.012;2024-01-25T04:26:16;6.89;87.10
18581;DHT22;9420;50.876;7.012;2024-01-25T04:28:43;6.82;87.16
18581;DHT22;9420;50.876;7.012;2024-01-25T04:31:10;6.92;87.07
18581;DHT22;9420;50.876;7.012;2024-01-25T04:33:38;6.92;87.06
18581;DHT22;9420;50.876;7.012;2024-01-25T04:36:05;6.79;87.21
18581;DHT22;9420;50.876;7.012;2024-01-25T04:38:31;6.79;87.24
18581;DHT22;9420;50.876;7.012;2024-01-25T04:40:59;6.75;87.16
18581;DHT22;9420;50.876;7.012;2024-01-25T04:43:26;6.71;87.57
18581;DHT22;9420;50.876;7.012;2024-01-25T04:45:53;6.73;87.37
18581;DHT22;9420;50.876;7.012;2024-01-25T04:48:19;6.73;87.36
18581;DHT22;9420;50.876;7.012;2024-01-25T04:50:46;6.56;87.40
18581;DHT22;9420;50.876;7.012;2024-01-25T04:53:12;6.66;87.54
18581;DHT22;9420;50.876;7.012;2024-01-25T04:55:39;6.61;87.53
18581;DHT22;9420;50.876;7.012;2024-01-25T04:58:07;6.53;87.74
18581;DHT22;9420;50.876;7.012;2024-01-25T05:00:34;6.44;87.81
18581;DHT22;9420;50.876;7.012;2024-01-25T05:03:02;6.49;87.83
18581;DHT22;9420;50.876;7.012;2024-01-25T05:05:28;6.48;87.87
18581;DHT22;9420;50.876;7.012;2024-01-25T05:07:55;6.37;88.11
18581;DHT22;9420;50.876;7.012;2024-01-25T05:10:22;6.11;88.11
18581;DHT22;9420;50.876;7.012;2024-01-25T05:12:50;6.24;88.34
18581;DHT22;9420;50.876;7.012;2024-01-25T05:15:18;6.25;88.51
18581;DHT22;9420;50.876;7.012;2024-01-25T05:17:45;6.18;88.25
18581;DHT22;9420;50.876;7.012;2024-01-25T05:20:12;6.27;88.44
18581;DHT22;9420;50.876;7.012;2024-01-25T05:22:40;6.21;88.54
18581;DHT22;9420;50.876;7.012;2024-01-25T05:25:08;6.24;88.53
18581;DHT22;9420;50.876;7.012;2024-01-25T05:27:35;6.18;88.47
18581;DHT22;9420;50.876;7.012;2024-01-25T05:30:01;6.22;88.64
18581;DHT22;9420;50.876;7.012;2024-01-25T05:32:31;6.24;88.46
18581;DHT22;9420;50.876;7.012;2024-01-25T05:34:58;6.10;88.50
18581;DHT22;9420;50.876;7.012;2024-01-25T05:37:25;6.14;88.65
18581;DHT22;9420;50.876;7.012;2024-01-25T05:39:51;6.11;88.54
18581;DHT22;9420;50.876;7.012;2024-01-25T05:42:18;6.11;88.48
18581;DHT22;9420;50.876;7.012;2024-01-25T05:44:45;6.01;88.49
18581;DHT22;9420;50.876;7.012;2024-01-25T05:47:11;5.91;88.58
18581;DHT22;9420;50.876;7.012;2024-01-25T05:49:41;5.85;88.69
18581;DHT22;9420;50.876;7.012;2024-01-25T05:52:08;5.76;88.85
18581;DHT22;9420;50.876;7.012;2024-01-25T05:54:34;5.71;89.02
18581;DHT22;9420;50.876;7.012;2024-01-25T05:57:01;5.71;88.89
18581;DHT22;9420;50.876;7.012;2024-01-25T05:59:29;5.74;88.97
18581;DHT22;9420;50.876;7.012;2024-01-25T06:01:56;5.80;88.83
18581;DHT22;9420;50.876;7.012;2024-01-25T06:04:22;5.86;88.78
18581;DHT22;9420;50.876;7.012;2024-01-25T06:06:50;5.81;88.79
18581;DHT22;9420;50.876;7.012;2024-01-25T06:09:17;5.76;88.85
18581;DHT22;9420;50.876;7.012;2024-01-25T06:11:44;5.77;88.88
18581;DHT22;9420;50.876;7.012;2024-01-25T06:14:11;5.77;88.76
18581;DHT22;9420;50.876;7.012;2024-01-25T06:16:38;5.81;88.63
18581;DHT22;9420;50.876;7.012;2024-01-25T06:19:05;5.83;88.50
18581;DHT22;9420;50.876;7.012;2024-01-25T06:21:31;5.79;88.40
18581;DHT22;9420;50.876;7.012;2024-01-25T06:24:02;5.76;88.43
18581;DHT22;9420;50.876;7.012;2024-01-25T06:26:28;5.71;88.54
18581;DHT22;9420;50.876;7.012;2024-01-25T06:28:55;5.73;88.48
18581;DHT22;9420;50.876;7.012;2024-01-25T06:31:22;5.69;88.59
18581;DHT22;9420;50.876;7.012;2024-01-25T06:33:49;5.60;88.65
18581;DHT22;9420;50.876;7.012;2024-01-25T06:36:15;5.53;88.81
18581;DHT22;9420;50.876;7.012;2024-01-25T06:38:42;5.55;88.85
18581;DHT22;9420;50.876;7.012;2024-01-25T06:41:13;5.55;88.73
18581;DHT22;9420;50.876;7.012;2024-01-25T06:43:40;5.62;88.69
18581;DHT22;9420;50.876;7.012;2024-01-25T06:46:07;5.62;88.72
18581;DHT22;9420;50.876;7.012;2024-01-25T06:48:33;5.60;88.70
18581;DHT22;9420;50.876;7.012;2024-01-25T06:51:01;5.53;89.01
18581;DHT22;9420;50.876;7.012;2024-01-25T06:53:28;5.56;88.77
18581;DHT22;9420;50.876;7.012;2024-01-25T06:55:55;5.46;88.77
18581;DHT22;9420;50.876;7.012;2024-01-25T06:58:23;5.50;88.77
18581;DHT22;9420;50.876;7.012;2024-01-25T07:00:49;5.49;88.83
18581;DHT22;9420;50.876;7.012;2024-01-25T07:03:16;5.50;88.68
18581;DHT22;9420;50.876;7.012;2024-01-25T07:05:42;5.50;88.81
18581;DHT22;9420;50.876;7.012;2024-01-25T07:08:10;5.55;88.72
18581;DHT22;9420;50.876;7.012;2024-01-25T07:10:38;5.46;88.76
18581;DHT22;9420;50.876;7.012;2024-01-25T07:13:05;5.43;88.93
18581;DHT22;9420;50.876;7.012;2024-01-25T07:15:33;5.43;89.01
18581;DHT22;9420;50.876;7.012;2024-01-25T07:18:00;5.43;89.11
18581;DHT22;9420;50.876;7.012;2024-01-25T07:20:27;5.36;88.91
18581;DHT22;9420;50.876;7.012;2024-01-25T07:22:55;5.36;89.01
18581;DHT22;9420;50.876;7.012;2024-01-25T07:25:22;5.31;89.09
18581;DHT22;9420;50.876;7.012;2024-01-25T07:27:49;5.43;89.04
18581;DHT22;9420;50.876;7.012;2024-01-25T07:30:15;5.43;88.92
18581;DHT22;9420;50.876;7.012;2024-01-25T07:32:43;5.38;88.86
18581;DHT22;9420;50.876;7.012;2024-01-25T07:35:11;5.34;89.08
18581;DHT22;9420;50.876;7.012;2024-01-25T07:37:38;5.43;89.04
18581;DHT22;9420;50.876;7.012;2024-01-25T07:40:06;5.53;89.08
18581;DHT22;9420;50.876;7.012;2024-01-25T07:42:33;5.53;88.88
18581;DHT22;9420;50.876;7.012;2024-01-25T07:45:00;5.52;88.68
18581;DHT22;9420;50.876;7.012;2024-01-25T07:47:26;5.52;88.74
18581;DHT22;9420;50.876;7.012;2024-01-25T07:49:54;5.50;88.74
18581;DHT22;9420;50.876;7.012;2024-01-25T07:52:21;5.60;88.52
18581;DHT22;9420;50.876;7.012;2024-01-25T07:54:47;5.66;88.33
18581;DHT22;9420;50.876;7.012;2024-01-25T07:57:14;5.65;88.40
18581;DHT22;9420;50.876;7.012;2024-01-25T07:59:43;5.63;88.28
18581;DHT22;9420;50.876;7.012;2024-01-25T08:02:09;5.74;88.02
18581;DHT22;9420;50.876;7.012;2024-01-25T08:04:36;5.71;88.07
18581;DHT22;9420;50.876;7.012;2024-01-25T08:07:04;5.86;87.74
18581;DHT22;9420;50.876;7.012;2024-01-25T08:09:31;5.89;87.65
18581;DHT22;9420;50.876;7.012;2024-01-25T08:11:58;5.81;87.50
18581;DHT22;9420;50.876;7.012;2024-01-25T08:14:26;5.85;87.51
18581;DHT22;9420;50.876;7.012;2024-01-25T08:16:53;5.89;87.46
18581;DHT22;9420;50.876;7.012;2024-01-25T08:19:20;6.07;87.35
18581;DHT22;9420;50.876;7.012;2024-01-25T08:21:49;6.14;86.90
18581;DHT22;9420;50.876;7.012;2024-01-25T08:24:17;6.34;86.56
18581;DHT22;9420;50.876;7.012;2024-01-25T08:26:43;6.42;86.21
18581;DHT22;9420;50.876;7.012;2024-01-25T08:29:11;6.50;86.10
18581;DHT22;9420;50.876;7.012;2024-01-25T08:31:37;6.61;85.81
18581;DHT22;9420;50.876;7.012;2024-01-25T08:34:04;6.62;85.67
18581;DHT22;9420;50.876;7.012;2024-01-25T08:36:30;6.62;85.87
18581;DHT22;9420;50.876;7.012;2024-01-25T08:38:57;6.55;85.78
18581;DHT22;9420;50.876;7.012;2024-01-25T08:41:25;6.62;85.73
18581;DHT22;9420;50.876;7.012;2024-01-25T08:43:51;6.56;85.85
18581;DHT22;9420;50.876;7.012;2024-01-25T08:46:18;6.64;85.87
18581;DHT22;9420;50.876;7.012;2024-01-25T08:48:45;6.68;85.64
18581;DHT22;9420;50.876;7.012;2024-01-25T08:51:12;6.79;85.38
18581;DHT22;9420;50.876;7.012;2024-01-25T08:53:38;6.77;85.51
18581;DHT22;9420;50.876;7.012;2024-01-25T08:56:05;6.85;85.41
18581;DHT22;9420;50.876;7.012;2024-01-25T08:58:34;6.93;84.93
18581;DHT22;9420;50.876;7.012;2024-01-25T09:01:00;6.99;84.95
18581;DHT22;9420;50.876;7.012;2024-01-25T09:03:27;7.14;84.71
18581;DHT22;9420;50.876;7.012;2024-01-25T09:05:54;7.48;84.10
18581;DHT22;9420;50.876;7.012;2024-01-25T09:08:20;7.47;83.83
18581;DHT22;9420;50.876;7.012;2024-01-25T09:10:47;7.54;83.96
18581;DHT22;9420;50.876;7.012;2024-01-25T09:13:14;7.59;83.72
18581;DHT22;9420;50.876;7.012;2024-01-25T09:15:42;7.52;83.44
18581;DHT22;9420;50.876;7.012;2024-01-25T09:18:09;7.82;83.22
18581;DHT22;9420;50.876;7.012;2024-01-25T09:20:36;7.87;82.95
18581;DHT22;9420;50.876;7.012;2024-01-25T09:23:03;7.96;82.27
18581;DHT22;9420;50.876;7.012;2024-01-25T09:25:30;7.92;82.14
18581;DHT22;9420;50.876;7.012;2024-01-25T09:27:56;7.87;82.52
18581;DHT22;9420;50.876;7.012;2024-01-25T09:30:23;7.81;82.93
18581;DHT22;9420;50.876;7.012;2024-01-25T09:32:51;7.94;82.43
18581;DHT22;9420;50.876;7.012;2024-01-25T09:35:18;8.16;82.17
18581;DHT22;9420;50.876;7.012;2024-01-25T09:37:44;7.94;82.54
18581;DHT22;9420;50.876;7.012;2024-01-25T09:40:11;8.04;82.35
18581;DHT22;9420;50.876;7.012;2024-01-25T09:42:38;8.17;82.10
18581;DHT22;9420;50.876;7.012;2024-01-25T09:45:06;8.23;82.10
18581;DHT22;9420;50.876;7.012;2024-01-25T09:47:33;8.26;81.77
18581;DHT22;9420;50.876;7.012;2024-01-25T09:50:02;8.47;81.04
18581;DHT22;9420;50.876;7.012;2024-01-25T09:52:29;8.17;81.63
18581;DHT22;9420;50.876;7.012;2024-01-25T09:54:57;8.26;81.91
18581;DHT22;9420;50.876;7.012;2024-01-25T09:57:25;8.36;82.05
18581;DHT22;9420;50.876;7.012;2024-01-25T09:59:54;8.36;81.29
18581;DHT22;9420;50.876;7.012;2024-01-25T10:02:21;8.54;81.21
18581;DHT22;9420;50.876;7.012;2024-01-25T10:04:49;8.50;81.60
18581;DHT22;9420;50.876;7.012;2024-01-25T10:07:35;8.58;80.97
18581;DHT22;9420;50.876;7.012;2024-01-25T10:10:01;8.42;81.28
18581;DHT22;9420;50.876;7.012;2024-01-25T10:12:29;8.61;80.99
18581;DHT22;9420;50.876;7.012;2024-01-25T10:14:56;8.55;81.28
18581;DHT22;9420;50.876;7.012;2024-01-25T10:17:22;8.65;80.29
18581;DHT22;9420;50.876;7.012;2024-01-25T10:19:49;8.69;80.95
18581;DHT22;9420;50.876;7.012;2024-01-25T10:22:17;8.54;80.92
18581;DHT22;9420;50.876;7.012;2024-01-25T10:24:44;8.64;80.59
18581;DHT22;9420;50.876;7.012;2024-01-25T10:27:11;8.76;80.53
18581;DHT22;9420;50.876;7.012;2024-01-25T10:29:38;8.83;80.45
18581;DHT22;9420;50.876;7.012;2024-01-25T10:32:06;9.20;79.73
18581;DHT22;9420;50.876;7.012;2024-01-25T10:34:35;9.40;79.37
18581;DHT22;9420;50.876;7.012;2024-01-25T10:37:02;9.41;79.49
18581;DHT22;9420;50.876;7.012;2024-01-25T10:39:31;9.43;79.40
18581;DHT22;9420;50.876;7.012;2024-01-25T10:41:58;9.33;79.63
18581;DHT22;9420;50.876;7.012;2024-01-25T10:44:25;9.77;78.38
18581;DHT22;9420;50.876;7.012;2024-01-25T10:46:53;9.40;79.26
18581;DHT22;9420;50.876;7.012;2024-01-25T10:49:20;9.54;79.08
18581;DHT22;9420;50.876;7.012;2024-01-25T10:51:48;9.91;77.94
18581;DHT22;9420;50.876;7.012;2024-01-25T10:54:15;10.01;77.20
18581;DHT22;9420;50.876;7.012;2024-01-25T10:56:46;9.65;77.93
18581;DHT22;9420;50.876;7.012;2024-01-25T10:59:13;9.91;77.99
18581;DHT22;9420;50.876;7.012;2024-01-25T11:01:43;9.92;77.01
18581;DHT22;9420;50.876;7.012;2024-01-25T11:04:15;9.65;77.84
18581;DHT22;9420;50.876;7.012;2024-01-25T11:06:43;9.79;77.92
18581;DHT22;9420;50.876;7.012;2024-01-25T11:09:16;9.99;77.64
18581;DHT22;9420;50.876;7.012;2024-01-25T11:11:46;9.89;76.96
18581;DHT22;9420;50.876;7.012;2024-01-25T11:14:18;9.98;77.10
18581;DHT22;9420;50.876;7.012;2024-01-25T11:16:45;9.81;77.46
18581;DHT22;9420;50.876;7.012;2024-01-25T11:19:21;10.05;76.80
18581;DHT22;9420;50.876;7.012;2024-01-25T11:21:49;10.02;76.73
18581;DHT22;9420;50.876;7.012;2024-01-25T11:24:20;10.22;76.13
18581;DHT22;9420;50.876;7.012;2024-01-25T11:26:49;10.35;75.62
18581;DHT22;9420;50.876;7.012;2024-01-25T11:29:16;10.47;75.35
18581;DHT22;9420;50.876;7.012;2024-01-25T11:31:43;10.23;75.72
18581;DHT22;9420;50.876;7.012;2024-01-25T11:34:10;10.36;74.63
18581;DHT22;9420;50.876;7.012;2024-01-25T11:36:38;10.68;74.53
18581;DHT22;9420;50.876;7.012;2024-01-25T11:39:05;10.94;73.15
18581;DHT22;9420;50.876;7.012;2024-01-25T11:41:32;11.32;73.00
18581;DHT22;9420;50.876;7.012;2024-01-25T11:44:00;11.52;71.25
18581;DHT22;9420;50.876;7.012;2024-01-25T11:46:27;11.66;70.65
18581;DHT22;9420;50.876;7.012;2024-01-25T11:48:54;12.13;69.23
18581;DHT22;9420;50.876;7.012;2024-01-25T11:51:21;11.91;69.48
18581;DHT22;9420;50.876;7.012;2024-01-25T11:53:48;11.95;68.80
18581;DHT22;9420;50.876;7.012;2024-01-25T11:56:17;12.24;66.96
18581;DHT22;9420;50.876;7.012;2024-01-25T11:58:45;13.08;64.52
18581;DHT22;9420;50.876;7.012;2024-01-25T12:01:14;13.48;63.09
18581;DHT22;9420;50.876;7.012;2024-01-25T12:03:41;13.76;61.45
18581;DHT22;9420;50.876;7.012;2024-01-25T12:06:08;13.89;61.99
18581;DHT22;9420;50.876;7.012;2024-01-25T12:08:36;12.83;63.92
18581;DHT22;9420;50.876;7.012;2024-01-25T12:11:04;13.26;63.99
18581;DHT22;9420;50.876;7.012;2024-01-25T12:13:32;12.96;62.79
18581;DHT22;9420;50.876;7.012;2024-01-25T12:16:01;13.41;64.64
18581;DHT22;9420;50.876;7.012;2024-01-25T12:18:32;13.47;63.49
18581;DHT22;9420;50.876;7.012;2024-01-25T12:21:01;13.75;63.80
18581;DHT22;9420;50.876;7.012;2024-01-25T12:23:32;14.06;60.12
18581;DHT22;9420;50.876;7.012;2024-01-25T12:26:00;14.44;58.79
18581;DHT22;9420;50.876;7.012;2024-01-25T12:28:28;14.19;59.42
18581;DHT22;9420;50.876;7.012;2024-01-25T12:30:56;14.13;59.31
18581;DHT22;9420;50.876;7.012;2024-01-25T12:33:23;14.08;62.21
18581;DHT22;9420;50.876;7.012;2024-01-25T12:35:51;14.78;61.24
18581;DHT22;9420;50.876;7.012;2024-01-25T12:38:19;15.29;59.61
18581;DHT22;9420;50.876;7.012;2024-01-25T12:40:47;14.99;59.48
18581;DHT22;9420;50.876;7.012;2024-01-25T12:43:14;14.27;64.88
18581;DHT22;9420;50.876;7.012;2024-01-25T12:45:40;14.17;62.88
18581;DHT22;9420;50.876;7.012;2024-01-25T12:48:08;13.75;62.44
18581;DHT22;9420;50.876;7.012;2024-01-25T12:50:35;12.99;64.17
18581;DHT22;9420;50.876;7.012;2024-01-25T12:53:03;13.53;63.43
18581;DHT22;9420;50.876;7.012;2024-01-25T12:55:30;13.21;64.11
18581;DHT22;9420;50.876;7.012;2024-01-25T12:57:58;12.41;67.16
18581;DHT22;9420;50.876;7.012;2024-01-25T13:00:25;12.31;66.79
18581;DHT22;9420;50.876;7.012;2024-01-25T13:02:52;13.24;63.16
18581;DHT22;9420;50.876;7.012;2024-01-25T13:05:20;12.76;64.52
18581;DHT22;9420;50.876;7.012;2024-01-25T13:07:46;12.93;63.92
18581;DHT22;9420;50.876;7.012;2024-01-25T13:10:14;12.59;64.96
18581;DHT22;9420;50.876;7.012;2024-01-25T13:12:41;12.17;66.54
18581;DHT22;9420;50.876;7.012;2024-01-25T13:15:08;12.17;66.50
18581;DHT22;9420;50.876;7.012;2024-01-25T13:17:35;12.68;64.74
18581;DHT22;9420;50.876;7.012;2024-01-25T13:20:02;12.24;65.17
18581;DHT22;9420;50.876;7.012;2024-01-25T13:22:31;12.51;64.43
18581;DHT22;9420;50.876;7.012;2024-01-25T13:24:58;12.63;63.55
18581;DHT22;9420;50.876;7.012;2024-01-25T13:27:26;12.21;65.67
18581;DHT22;9420;50.876;7.012;2024-01-25T13:29:55;12.16;67.39
18581;DHT22;9420;50.876;7.012;2024-01-25T13:32:25;12.02;65.75
18581;DHT22;9420;50.876;7.012;2024-01-25T13:35:01;11.73;67.52
18581;DHT22;9420;50.876;7.012;2024-01-25T13:37:27;11.51;67.78
18581;DHT22;9420;50.876;7.012;2024-01-25T13:39:54;11.40;68.62
18581;DHT22;9420;50.876;7.012;2024-01-25T13:42:20;11.86;66.91
18581;DHT22;9420;50.876;7.012;2024-01-25T13:44:48;11.70;67.88
18581;DHT22;9420;50.876;7.012;2024-01-25T13:47:15;11.67;70.81
18581;DHT22;9420;50.876;7.012;2024-01-25T13:49:43;11.58;70.10
18581;DHT22;9420;50.876;7.012;2024-01-25T13:52:17;11.69;69.57
18581;DHT22;9420;50.876;7.012;2024-01-25T13:54:44;11.69;70.42
18581;DHT22;9420;50.876;7.012;2024-01-25T13:57:11;11.72;69.32
18581;DHT22;9420;50.876;7.012;2024-01-25T13:59:37;11.80;67.71
18581;DHT22;9420;50.876;7.012;2024-01-25T14:02:05;11.43;68.85
18581;DHT22;9420;50.876;7.012;2024-01-25T14:04:32;11.65;67.76
18581;DHT22;9420;50.876;7.012;2024-01-25T14:06:59;11.59;67.80
18581;DHT22;9420;50.876;7.012;2024-01-25T14:09:28;11.58;68.93
18581;DHT22;9420;50.876;7.012;2024-01-25T14:11:55;11.36;70.11
18581;DHT22;9420;50.876;7.012;2024-01-25T14:14:22;11.36;70.70
18581;DHT22;9420;50.876;7.012;2024-01-25T14:16:49;11.72;68.41
18581;DHT22;9420;50.876;7.012;2024-01-25T14:19:17;11.74;68.74
18581;DHT22;9420;50.876;7.012;2024-01-25T14:21:45;11.66;70.96
18581;DHT22;9420;50.876;7.012;2024-01-25T14:24:12;11.69;71.20
18581;DHT22;9420;50.876;7.012;2024-01-25T14:26:39;11.53;73.23
18581;DHT22;9420;50.876;7.012;2024-01-25T14:29:06;11.36;73.85
18581;DHT22;9420;50.876;7.012;2024-01-25T14:31:32;11.31;74.04
18581;DHT22;9420;50.876;7.012;2024-01-25T14:33:59;11.18;74.13
18581;DHT22;9420;50.876;7.012;2024-01-25T14:36:27;11.11;74.31
18581;DHT22;9420;50.876;7.012;2024-01-25T14:38:54;11.12;73.50
18581;DHT22;9420;50.876;7.012;2024-01-25T14:41:20;10.98;73.24
18581;DHT22;9420;50.876;7.012;2024-01-25T14:43:47;10.97;74.26
18581;DHT22;9420;50.876;7.012;2024-01-25T14:46:14;10.91;74.35
18581;DHT22;9420;50.876;7.012;2024-01-25T14:48:40;10.88;75.01
18581;DHT22;9420;50.876;7.012;2024-01-25T14:51:07;10.70;75.58
18581;DHT22;9420;50.876;7.012;2024-01-25T14:53:35;10.59;75.51
18581;DHT22;9420;50.876;7.012;2024-01-25T14:56:02;10.53;75.03
18581;DHT22;9420;50.876;7.012;2024-01-25T14:58:28;10.50;75.29
18581;DHT22;9420;50.876;7.012;2024-01-25T15:00:56;10.47;76.15
18581;DHT22;9420;50.876;7.012;2024-01-25T15:03:23;10.43;75.65
18581;DHT22;9420;50.876;7.012;2024-01-25T15:05:50;10.36;76.48
18581;DHT22;9420;50.876;7.012;2024-01-25T15:08:16;10.32;76.24
18581;DHT22;9420;50.876;7.012;2024-01-25T15:10:44;10.29;76.85
18581;DHT22;9420;50.876;7.012;2024-01-25T15:13:11;10.23;77.31
18581;DHT22;9420;50.876;7.012;2024-01-25T15:15:38;10.13;77.76
18581;DHT22;9420;50.876;7.012;2024-01-25T15:18:07;10.09;78.46
18581;DHT22;9420;50.876;7.012;2024-01-25T15:20:34;10.10;77.63
18581;DHT22;9420;50.876;7.012;2024-01-25T15:23:02;10.18;78.01
18581;DHT22;9420;50.876;7.012;2024-01-25T15:25:28;10.09;78.35
18581;DHT22;9420;50.876;7.012;2024-01-25T15:27:56;10.06;78.64
18581;DHT22;9420;50.876;7.012;2024-01-25T15:30:23;10.08;77.32
18581;DHT22;9420;50.876;7.012;2024-01-25T15:32:50;10.02;78.30
18581;DHT22;9420;50.876;7.012;2024-01-25T15:35:17;10.01;77.61
18581;DHT22;9420;50.876;7.012;2024-01-25T15:37:44;10.08;77.05
18581;DHT22;9420;50.876;7.012;2024-01-25T15:40:11;9.91;77.18
18581;DHT22;9420;50.876;7.012;2024-01-25T15:42:39;9.98;76.75
18581;DHT22;9420;50.876;7.012;2024-01-25T15:45:08;9.94;77.30
18581;DHT22;9420;50.876;7.012;2024-01-25T15:47:36;9.94;76.84
18581;DHT22;9420;50.876;7.012;2024-01-25T15:50:03;9.97;76.82
18581;DHT22;9420;50.876;7.012;2024-01-25T15:52:31;9.87;77.43
18581;DHT22;9420;50.876;7.012;2024-01-25T15:54:58;9.87;77.55
18581;DHT22;9420;50.876;7.012;2024-01-25T15:57:25;9.82;77.69